createdAt,value
2022-09-23T00:01:16.181Z,6.32
2022-09-23T00:03:45.655Z,8.93
2022-09-23T00:06:22.344Z,6.68
2022-09-23T00:08:50.083Z,8.15
2022-09-23T00:11:24.559Z,6.20
2022-09-23T00:13:58.726Z,6.55
2022-09-23T00:16:34.638Z,9.25
2022-09-23T00:19:03.622Z,6.60
2022-09-23T00:21:30.657Z,9.82
2022-09-23T00:23:57.643Z,11.30
2022-09-23T00:26:24.771Z,6.68
2022-09-23T00:28:52.594Z,7.97
2022-09-23T00:31:26.073Z,9.70
2022-09-23T00:34:01.199Z,5.63
2022-09-23T00:36:29.758Z,7.75
2022-09-23T00:38:56.907Z,7.32
2022-09-23T00:41:25.158Z,5.95
2022-09-23T00:43:56.790Z,6.75
2022-09-23T00:46:28.667Z,6.13
2022-09-23T00:49:06.764Z,8.00
2022-09-23T00:51:40.188Z,6.15
2022-09-23T00:54:08.048Z,8.07
2022-09-23T00:56:36.815Z,5.85
2022-09-23T00:59:05.234Z,6.53
2022-09-23T01:01:32.258Z,7.20
2022-09-23T01:03:59.372Z,5.88
2022-09-23T01:06:26.387Z,7.45
2022-09-23T01:08:53.615Z,5.60
2022-09-23T01:11:42.341Z,6.13
2022-09-23T01:14:32.105Z,6.25
2022-09-23T01:17:11.490Z,6.50
2022-09-23T01:20:09.710Z,7.47
2022-09-23T01:22:54.686Z,7.60
2022-09-23T01:25:34.729Z,6.03
2022-09-23T01:28:33.934Z,5.72
2022-09-23T01:31:35.040Z,6.40
2022-09-23T01:34:19.119Z,7.43
2022-09-23T01:37:03.854Z,5.60
2022-09-23T01:40:02.942Z,6.90
2022-09-23T01:42:39.560Z,5.80
2022-09-23T01:45:16.211Z,6.88
2022-09-23T01:47:54.948Z,6.50
2022-09-23T01:50:49.502Z,6.32
2022-09-23T01:53:25.666Z,7.20
2022-09-23T01:55:57.876Z,6.80
2022-09-23T01:58:43.176Z,7.18
2022-09-23T02:01:16.313Z,6.15
2022-09-23T02:04:22.449Z,8.85
2022-09-23T02:06:59.776Z,7.22
2022-09-23T02:09:36.214Z,7.07
2022-09-23T02:12:09.602Z,6.72
2022-09-23T02:14:49.312Z,9.35
2022-09-23T02:17:31.780Z,6.88
2022-09-23T02:20:04.361Z,7.15
2022-09-23T02:22:51.763Z,6.55
2022-09-23T02:25:22.533Z,7.85
2022-09-23T02:28:08.115Z,7.60
2022-09-23T02:30:46.902Z,7.07
2022-09-23T02:33:52.203Z,7.90
2022-09-23T02:36:33.064Z,9.65
2022-09-23T02:39:06.328Z,7.13
2022-09-23T02:41:50.127Z,6.37
2022-09-23T02:44:19.527Z,6.78
2022-09-23T02:46:47.214Z,7.68
2022-09-23T02:49:25.799Z,6.75
2022-09-23T02:51:54.563Z,7.22
2022-09-23T02:54:25.815Z,6.97
2022-09-23T02:56:53.606Z,7.65
2022-09-23T02:59:23.209Z,7.97
2022-09-23T03:02:21.740Z,7.93
2022-09-23T03:05:18.148Z,6.95
2022-09-23T03:08:06.382Z,7.15
2022-09-23T03:10:53.967Z,7.13
2022-09-23T03:14:22.003Z,7.10
2022-09-23T03:17:04.860Z,9.55
2022-09-23T03:19:56.108Z,7.25
2022-09-23T03:22:34.047Z,7.47
2022-09-23T03:25:09.433Z,8.20
2022-09-23T03:27:37.992Z,7.75
2022-09-23T03:30:07.619Z,10.60
2022-09-23T03:32:35.165Z,8.43
2022-09-23T03:35:05.036Z,8.75
2022-09-23T03:40:51.062Z,9.98
2022-09-23T03:43:18.963Z,12.05
2022-09-23T03:45:46.536Z,7.30
2022-09-23T03:48:16.453Z,8.27
2022-09-23T03:50:43.463Z,8.50
2022-09-23T03:53:13.794Z,9.10
2022-09-23T03:55:40.884Z,9.27
2022-09-23T03:58:08.212Z,8.55
2022-09-23T04:00:36.216Z,9.43
2022-09-23T04:03:06.135Z,9.30
2022-09-23T04:05:36.136Z,9.45
2022-09-23T04:08:03.093Z,9.35
2022-09-23T04:10:30.011Z,9.52
2022-09-23T04:12:56.836Z,9.10
2022-09-23T04:15:23.751Z,9.68
2022-09-23T04:17:51.261Z,10.25
2022-09-23T04:20:19.031Z,11.93
2022-09-23T04:22:46.123Z,9.63
2022-09-23T04:25:13.069Z,10.27
2022-09-23T04:27:40.041Z,8.80
2022-09-23T04:30:07.903Z,11.88
2022-09-23T04:32:34.854Z,10.07
2022-09-23T04:35:01.943Z,10.15
2022-09-23T04:37:29.475Z,12.15
2022-09-23T04:39:57.313Z,12.18
2022-09-23T04:42:24.640Z,9.40
2022-09-23T04:44:51.523Z,8.73
2022-09-23T04:47:19.326Z,10.77
2022-09-23T04:49:46.220Z,12.18
2022-09-23T04:52:13.233Z,13.05
2022-09-23T04:54:41.547Z,11.05
2022-09-23T04:57:11.104Z,10.45
2022-09-23T04:59:38.162Z,11.18
2022-09-23T05:02:05.505Z,11.25
2022-09-23T05:04:32.742Z,13.35
2022-09-23T05:07:03.265Z,14.15
2022-09-23T05:09:31.175Z,11.90
2022-09-23T05:11:58.143Z,12.63
2022-09-23T05:14:25.166Z,12.88
2022-09-23T05:16:52.540Z,13.45
2022-09-23T05:19:19.483Z,10.93
2022-09-23T05:21:46.488Z,10.35
2022-09-23T05:24:13.559Z,10.85
2022-09-23T05:26:40.683Z,11.27
2022-09-23T05:29:08.032Z,10.20
2022-09-23T05:31:35.652Z,13.07
2022-09-23T05:34:05.519Z,10.80
2022-09-23T05:36:38.694Z,13.32
2022-09-23T05:39:08.342Z,12.77
2022-09-23T05:41:36.326Z,14.35
2022-09-23T05:44:03.428Z,15.02
2022-09-23T05:46:32.210Z,11.88
2022-09-23T05:49:03.018Z,11.13
2022-09-23T05:51:31.976Z,13.18
2022-09-23T05:54:00.804Z,13.20
2022-09-23T05:56:29.271Z,11.57
2022-09-23T05:58:59.457Z,11.02
2022-09-23T06:01:35.364Z,12.77
2022-09-23T06:04:05.748Z,14.60
2022-09-23T06:06:37.335Z,14.95
2022-09-23T06:09:05.957Z,14.95
2022-09-23T06:11:35.947Z,15.35
2022-09-23T06:14:04.269Z,11.65
2022-09-23T06:16:35.228Z,12.90
2022-09-23T06:19:06.739Z,13.60
2022-09-23T06:21:38.096Z,14.50
2022-09-23T06:24:06.699Z,12.93
2022-09-23T06:26:35.627Z,13.98
2022-09-23T06:29:04.801Z,11.38
2022-09-23T06:31:33.128Z,13.48
2022-09-23T06:34:12.192Z,15.88
2022-09-23T06:36:45.072Z,11.98
2022-09-23T06:39:14.328Z,12.98
2022-09-23T06:41:42.470Z,12.32
2022-09-23T06:44:14.410Z,13.57
2022-09-23T06:46:41.659Z,11.52
2022-09-23T06:49:08.781Z,17.40
2022-09-23T06:51:35.777Z,11.82
2022-09-23T06:54:03.517Z,13.48
2022-09-23T06:56:34.701Z,10.90
2022-09-23T06:59:05.496Z,14.93
2022-09-23T07:01:32.618Z,14.55
2022-09-23T07:04:00.681Z,12.27
2022-09-23T07:06:28.063Z,11.38
2022-09-23T07:08:54.984Z,29.83
2022-09-23T07:11:23.461Z,26.63
2022-09-23T07:13:51.158Z,21.92
2022-09-23T07:16:18.406Z,12.48
2022-09-23T07:18:45.830Z,12.18
2022-09-23T07:21:17.749Z,13.88
2022-09-23T07:23:50.404Z,11.98
2022-09-23T07:26:20.050Z,11.95
2022-09-23T07:28:47.328Z,12.60
2022-09-23T07:31:27.918Z,15.60
2022-09-23T07:34:01.174Z,11.85
2022-09-23T07:36:32.364Z,11.38
2022-09-23T07:39:03.855Z,16.00
2022-09-23T07:41:32.634Z,12.07
2022-09-23T07:44:00.580Z,11.25
2022-09-23T07:46:31.651Z,13.88
2022-09-23T07:48:59.222Z,11.02
2022-09-23T07:51:36.070Z,13.38
2022-09-23T07:54:07.894Z,13.10
2022-09-23T07:56:37.018Z,10.88
2022-09-23T07:59:05.866Z,12.20
2022-09-23T08:01:44.319Z,11.80
2022-09-23T08:04:19.846Z,12.38
2022-09-23T08:06:54.201Z,13.50
2022-09-23T08:09:26.171Z,15.20
2022-09-23T08:11:53.686Z,12.00
2022-09-23T08:14:22.495Z,12.60
2022-09-23T08:16:50.342Z,10.25
2022-09-23T08:19:17.355Z,12.27
2022-09-23T08:21:47.428Z,12.63
2022-09-23T08:24:18.474Z,13.55
2022-09-23T08:26:47.583Z,11.63
2022-09-23T08:29:16.943Z,11.23
2022-09-23T08:31:44.222Z,10.05
2022-09-23T08:34:11.523Z,10.00
2022-09-23T08:36:38.574Z,8.82
2022-09-23T08:39:06.647Z,9.60
2022-09-23T08:42:27.794Z,8.77
2022-09-23T08:44:58.859Z,11.10
2022-09-23T08:47:53.809Z,7.10
2022-09-23T08:50:24.504Z,8.18
2022-09-23T08:53:03.585Z,8.60
2022-09-23T08:55:40.188Z,9.88
2022-09-23T08:58:41.581Z,8.30
2022-09-23T09:01:40.631Z,11.02
2022-09-23T09:04:35.251Z,6.63
2022-09-23T09:07:34.646Z,4.60
2022-09-23T09:10:03.604Z,5.95
2022-09-23T09:13:04.154Z,6.63
2022-09-23T09:15:32.070Z,3.88
2022-09-23T09:18:26.700Z,5.68
2022-09-23T09:21:05.353Z,5.05
2022-09-23T09:24:03.400Z,4.70
2022-09-23T09:26:34.118Z,4.38
2022-09-23T09:29:34.109Z,8.55
2022-09-23T09:32:36.327Z,5.32
2022-09-23T09:35:21.077Z,3.50
2022-09-23T09:37:48.206Z,3.88
2022-09-23T09:40:17.273Z,3.50
2022-09-23T09:42:49.976Z,2.53
2022-09-23T09:45:57.496Z,3.03
2022-09-23T09:48:38.953Z,3.05
2022-09-23T09:51:21.580Z,3.03
2022-09-23T09:53:52.087Z,4.55
2022-09-23T09:56:31.603Z,4.45
2022-09-23T09:59:06.760Z,7.47
2022-09-23T10:01:35.518Z,2.58
2022-09-23T10:04:22.773Z,3.00
2022-09-23T10:07:06.926Z,1.95
2022-09-23T10:09:37.707Z,2.38
2022-09-23T10:12:18.721Z,1.63
2022-09-23T10:14:52.411Z,3.47
2022-09-23T10:17:35.551Z,3.45
2022-09-23T10:20:09.675Z,2.25
2022-09-23T10:22:42.419Z,5.28
2022-09-23T10:25:29.833Z,3.50
2022-09-23T10:27:56.762Z,3.42
2022-09-23T10:30:27.582Z,1.65
2022-09-23T10:32:56.958Z,1.55
2022-09-23T10:35:25.578Z,3.13
2022-09-23T10:37:58.031Z,4.38
2022-09-23T10:41:00.763Z,1.67
2022-09-23T10:43:51.671Z,2.80
2022-09-23T10:46:46.535Z,1.85
2022-09-23T10:49:51.855Z,2.63
2022-09-23T10:53:05.336Z,6.47
2022-09-23T10:56:13.867Z,2.35
2022-09-23T11:02:07.496Z,1.98
2022-09-23T11:05:11.583Z,2.00
2022-09-23T11:08:03.705Z,5.82
2022-09-23T11:11:20.037Z,2.13
2022-09-23T11:14:01.316Z,2.70
2022-09-23T11:17:14.632Z,2.63
2022-09-23T11:20:23.768Z,5.00
2022-09-23T11:23:10.370Z,1.77
2022-09-23T11:26:03.108Z,4.70
2022-09-23T11:28:46.768Z,2.92
2022-09-23T11:35:00.263Z,2.30
2022-09-23T11:37:35.476Z,1.65
2022-09-23T11:40:19.661Z,5.53
2022-09-23T11:43:14.270Z,0.73
2022-09-23T11:45:58.723Z,1.10
2022-09-23T11:48:57.101Z,1.48
2022-09-23T11:51:34.707Z,1.48
2022-09-23T11:54:27.935Z,1.05
2022-09-23T11:57:07.146Z,6.05
2022-09-23T12:00:10.490Z,1.50
2022-09-23T12:03:10.127Z,2.38
2022-09-23T12:05:51.623Z,2.58
2022-09-23T12:08:40.966Z,4.65
2022-09-23T12:12:03.309Z,1.83
2022-09-23T12:15:18.887Z,3.72
2022-09-23T12:18:05.761Z,1.40
2022-09-23T12:20:59.489Z,3.88
2022-09-23T12:23:42.263Z,2.30
2022-09-23T12:26:17.284Z,4.28
2022-09-23T12:28:51.007Z,2.47
2022-09-23T12:31:33.888Z,2.83
2022-09-23T12:34:30.863Z,1.40
2022-09-23T12:37:07.806Z,1.48
2022-09-23T12:39:39.073Z,2.25
2022-09-23T12:42:21.458Z,2.20
2022-09-23T12:44:49.510Z,1.85
2022-09-23T12:47:24.918Z,4.68
2022-09-23T12:49:58.200Z,2.40
2022-09-23T12:52:30.915Z,2.63
2022-09-23T12:55:23.389Z,4.38
2022-09-23T12:57:51.322Z,3.33
2022-09-23T13:00:25.875Z,3.53
2022-09-23T13:03:17.896Z,4.32
2022-09-23T13:06:15.156Z,2.17
2022-09-23T13:08:44.160Z,4.20
2022-09-23T13:11:27.104Z,3.67
2022-09-23T13:13:58.105Z,4.97
2022-09-23T13:16:37.901Z,2.58
2022-09-23T13:19:09.203Z,3.40
2022-09-23T13:21:45.879Z,3.88
2022-09-23T13:24:13.739Z,3.53
2022-09-23T13:27:06.247Z,3.63
2022-09-23T13:29:57.869Z,5.15
2022-09-23T13:33:01.635Z,4.22
2022-09-23T13:35:43.804Z,2.70
2022-09-23T13:38:25.086Z,5.63
2022-09-23T13:41:01.818Z,5.78
2022-09-23T13:43:40.283Z,3.85
2022-09-23T13:46:17.438Z,3.50
2022-09-23T13:48:47.367Z,3.58
2022-09-23T13:51:35.723Z,4.05
2022-09-23T13:54:05.189Z,4.53
2022-09-23T13:56:35.383Z,4.55
2022-09-23T13:59:26.122Z,5.07
2022-09-23T14:02:25.809Z,2.92
2022-09-23T14:04:58.622Z,4.78
2022-09-23T14:07:26.656Z,3.47
2022-09-23T14:09:56.018Z,3.80
2022-09-23T14:12:23.564Z,3.17
2022-09-23T14:14:52.787Z,2.33
2022-09-23T14:17:25.451Z,4.13
2022-09-23T14:19:52.782Z,3.35
2022-09-23T14:22:29.559Z,5.93
2022-09-23T14:24:58.709Z,7.38
2022-09-23T14:27:32.406Z,3.67
2022-09-23T14:30:02.319Z,5.35
2022-09-23T14:32:30.269Z,3.08
2022-09-23T14:35:00.320Z,3.95
2022-09-23T14:37:52.278Z,4.93
2022-09-23T14:41:14.542Z,3.65
2022-09-23T14:44:07.855Z,6.10
2022-09-23T14:46:37.866Z,3.08
2022-09-23T14:49:16.875Z,4.53
2022-09-23T14:51:50.243Z,3.55
2022-09-23T14:54:39.496Z,3.17
2022-09-23T14:57:29.007Z,2.75
2022-09-23T15:00:03.887Z,5.63
2022-09-23T15:02:42.394Z,4.30
2022-09-23T15:05:20.717Z,2.70
2022-09-23T15:07:53.311Z,2.63
2022-09-23T15:10:27.758Z,3.78
2022-09-23T15:13:04.463Z,2.50
2022-09-23T15:15:31.624Z,2.70
2022-09-23T15:18:18.777Z,3.33
2022-09-23T15:20:55.599Z,3.03
2022-09-23T15:23:40.990Z,2.63
2022-09-23T15:26:21.044Z,2.60
2022-09-23T15:28:50.006Z,3.30
2022-09-23T15:31:20.188Z,3.97
2022-09-23T15:33:48.745Z,3.75
2022-09-23T15:36:28.638Z,3.95
2022-09-23T15:38:57.259Z,7.85
2022-09-23T15:41:26.503Z,5.00
2022-09-23T15:43:56.532Z,9.45
2022-09-23T15:46:28.600Z,7.82
2022-09-23T15:49:27.911Z,8.55
2022-09-23T15:51:59.948Z,5.57
2022-09-23T15:54:29.022Z,4.07
2022-09-23T15:56:56.699Z,6.85
2022-09-23T15:59:27.115Z,7.13
2022-09-23T16:01:56.966Z,7.82
2022-09-23T16:04:26.635Z,10.30
2022-09-23T16:06:53.592Z,8.38
2022-09-23T16:09:20.523Z,9.63
2022-09-23T16:11:49.723Z,7.60
2022-09-23T16:14:18.622Z,6.63
2022-09-23T16:16:47.840Z,6.78
2022-09-23T16:19:17.681Z,3.95
2022-09-23T16:21:44.864Z,6.43
2022-09-23T16:24:17.924Z,6.13
2022-09-23T16:26:46.851Z,4.23
2022-09-23T16:29:14.740Z,5.45
2022-09-23T16:31:42.025Z,8.05
2022-09-23T16:34:09.039Z,6.43
2022-09-23T16:36:41.377Z,6.95
2022-09-23T16:39:12.630Z,5.68
2022-09-23T16:41:45.576Z,5.13
2022-09-23T16:44:12.696Z,13.83
2022-09-23T16:46:42.912Z,10.15
2022-09-23T16:49:12.150Z,8.27
2022-09-23T16:51:40.186Z,5.07
2022-09-23T16:54:11.914Z,5.35
2022-09-23T16:56:45.296Z,8.23
2022-09-23T16:59:14.363Z,5.15
2022-09-23T17:02:00.339Z,5.40
2022-09-23T17:04:31.511Z,4.70
2022-09-23T17:06:59.189Z,7.07
2022-09-23T17:09:29.123Z,4.55
2022-09-23T17:12:15.814Z,8.57
2022-09-23T17:14:43.756Z,8.20
2022-09-23T17:17:10.688Z,4.68
2022-09-23T17:19:41.320Z,10.00
2022-09-23T17:22:10.181Z,7.40
2022-09-23T17:24:56.296Z,11.35
2022-09-23T17:27:24.938Z,7.15
2022-09-23T17:29:54.216Z,8.35
2022-09-23T17:32:21.909Z,8.45
2022-09-23T17:34:49.102Z,7.20
2022-09-23T17:37:16.142Z,12.48
2022-09-23T17:39:43.151Z,8.48
2022-09-23T17:42:10.667Z,10.82
2022-09-23T17:44:38.398Z,18.55
2022-09-23T17:47:06.255Z,10.75
2022-09-23T17:52:38.032Z,12.95
2022-09-23T17:55:06.707Z,12.82
2022-09-23T17:57:33.812Z,16.85
2022-09-23T18:00:00.904Z,15.82
2022-09-23T18:02:28.973Z,12.93
2022-09-23T18:04:56.211Z,10.38
2022-09-23T18:07:23.245Z,12.48
2022-09-23T18:09:50.286Z,10.98
2022-09-23T18:12:17.437Z,11.82
2022-09-23T18:14:45.388Z,13.52
2022-09-23T18:17:12.358Z,11.23
2022-09-23T18:19:39.281Z,15.13
2022-09-23T18:22:06.392Z,11.52
2022-09-23T18:24:38.007Z,10.98
2022-09-23T18:27:06.730Z,8.77
2022-09-23T18:29:35.130Z,12.85
2022-09-23T18:32:04.508Z,13.15
2022-09-23T18:34:32.325Z,9.45
2022-09-23T18:37:00.110Z,24.65
2022-09-23T18:39:28.772Z,13.88
2022-09-23T18:41:57.013Z,11.05
2022-09-23T18:44:26.546Z,14.52
2022-09-23T18:46:54.863Z,10.07
2022-09-23T18:49:42.297Z,9.50
2022-09-23T18:52:10.235Z,15.18
2022-09-23T18:54:38.771Z,11.27
2022-09-23T18:57:06.697Z,8.43
2022-09-23T18:59:33.663Z,11.57
2022-09-23T19:02:01.134Z,9.52
2022-09-23T19:04:30.013Z,10.93
2022-09-23T19:06:57.972Z,8.50
2022-09-23T19:09:26.301Z,13.07
2022-09-23T19:11:54.933Z,7.35
2022-09-23T19:14:23.494Z,6.80
2022-09-23T19:16:52.521Z,9.60
2022-09-23T19:19:21.169Z,10.27
2022-09-23T19:21:48.781Z,11.65
2022-09-23T19:24:20.105Z,11.77
2022-09-23T19:26:51.971Z,9.52
2022-09-23T19:29:19.835Z,12.23
2022-09-23T19:31:48.954Z,9.98
2022-09-23T19:34:30.638Z,8.10
2022-09-23T19:37:01.407Z,13.00
2022-09-23T19:39:31.664Z,11.30
2022-09-23T19:42:00.424Z,12.10
2022-09-23T19:44:28.536Z,9.60
2022-09-23T19:46:57.476Z,12.90
2022-09-23T19:49:27.250Z,12.30
2022-09-23T19:51:58.550Z,10.25
2022-09-23T19:54:28.952Z,7.15
2022-09-23T19:56:57.173Z,12.45
2022-09-23T19:59:26.472Z,10.95
2022-09-23T20:01:55.055Z,8.68
2022-09-23T20:04:23.335Z,12.85
2022-09-23T20:06:51.690Z,14.73
2022-09-23T20:09:21.341Z,8.15
2022-09-23T20:11:51.716Z,10.45
2022-09-23T20:14:19.813Z,8.63
2022-09-23T20:16:48.356Z,11.77
2022-09-23T20:19:17.081Z,10.13
2022-09-23T20:22:07.060Z,10.88
2022-09-23T20:24:36.528Z,9.13
2022-09-23T20:27:11.438Z,9.55
2022-09-23T20:29:42.309Z,9.25
2022-09-23T20:32:12.813Z,7.30
2022-09-23T20:34:48.269Z,9.60
2022-09-23T20:37:17.556Z,12.40
2022-09-23T20:39:46.118Z,12.70
2022-09-23T20:42:16.165Z,11.18
2022-09-23T20:44:46.068Z,10.00
2022-09-23T20:47:17.964Z,12.90
2022-09-23T20:49:47.459Z,17.17
2022-09-23T20:52:20.227Z,19.02
2022-09-23T20:54:50.804Z,10.50
2022-09-23T20:57:20.017Z,22.70
2022-09-23T20:59:48.300Z,23.02
2022-09-23T21:02:16.068Z,10.70
2022-09-23T21:04:44.370Z,10.40
2022-09-23T21:07:11.725Z,11.35
2022-09-23T21:09:38.839Z,10.90
2022-09-23T21:12:07.085Z,10.50
2022-09-23T21:14:37.556Z,12.00
2022-09-23T21:17:04.701Z,11.18
2022-09-23T21:19:35.801Z,12.00
2022-09-23T21:22:03.404Z,11.38
2022-09-23T21:25:25.863Z,13.07
2022-09-23T21:27:18.348Z,10.10
2022-09-23T21:29:46.349Z,10.15
2022-09-23T21:32:16.338Z,10.13
2022-09-23T21:34:46.499Z,12.10
2022-09-23T21:37:18.686Z,9.97
2022-09-23T21:40:05.971Z,14.05
2022-09-23T21:42:36.789Z,11.23
2022-09-23T21:45:05.309Z,10.57
2022-09-23T21:47:32.495Z,12.75
2022-09-23T21:50:00.314Z,7.80
2022-09-23T21:52:27.731Z,7.40
2022-09-23T21:54:57.680Z,9.98
2022-09-23T21:57:26.736Z,9.00
2022-09-23T21:59:55.085Z,11.77
2022-09-23T22:02:23.596Z,13.27
2022-09-23T22:04:50.822Z,11.75
2022-09-23T22:07:20.877Z,10.57
2022-09-23T22:09:50.630Z,12.48
2022-09-23T22:12:18.352Z,11.68
2022-09-23T22:14:49.107Z,11.90
2022-09-23T22:17:16.978Z,11.82
2022-09-23T22:19:50.314Z,11.73
2022-09-23T22:22:19.000Z,8.52
2022-09-23T22:24:47.773Z,10.38
2022-09-23T22:27:18.955Z,13.43
2022-09-23T22:30:05.550Z,8.40
2022-09-23T22:32:43.695Z,9.85
2022-09-23T22:35:17.670Z,9.88
2022-09-23T22:37:45.420Z,14.38
2022-09-23T22:40:15.320Z,14.52
2022-09-23T22:42:43.962Z,13.18
2022-09-23T22:45:12.541Z,12.77
2022-09-23T22:47:44.050Z,13.10
2022-09-23T22:50:14.038Z,12.73
2022-09-23T22:52:41.510Z,12.30
2022-09-23T22:55:09.120Z,13.95
2022-09-23T22:57:36.732Z,12.95
2022-09-23T23:00:07.074Z,12.63
2022-09-23T23:02:34.107Z,9.98
2022-09-23T23:05:02.194Z,13.32
2022-09-23T23:07:29.140Z,15.65
2022-09-23T23:09:56.094Z,13.50
2022-09-23T23:12:23.136Z,11.65
2022-09-23T23:14:56.615Z,9.42
2022-09-23T23:17:23.965Z,13.15
2022-09-23T23:19:51.339Z,12.48
2022-09-23T23:22:18.285Z,10.40
2022-09-23T23:24:45.231Z,10.02
2022-09-23T23:27:12.513Z,11.05
2022-09-23T23:29:39.519Z,9.27
2022-09-23T23:32:07.774Z,10.77
2022-09-23T23:34:34.787Z,15.95
2022-09-23T23:37:02.311Z,11.07
2022-09-23T23:39:29.547Z,9.88
2022-09-23T23:41:58.500Z,10.07
2022-09-23T23:47:08.311Z,11.82
2022-09-23T23:49:35.537Z,10.75
2022-09-23T23:52:02.667Z,16.30
2022-09-23T23:54:29.856Z,14.10
2022-09-23T23:56:56.794Z,15.65
2022-09-23T23:59:23.736Z,15.75
